sensor_id;sensor_type;location;lat;lon;timestamp;temperature;humidity
1453;DHT22;720;47.738;7.998;2023-12-28T00:00:38;4.90;83.10
1453;DHT22;720;47.738;7.998;2023-12-28T00:03:04;4.80;81.90
1453;DHT22;720;47.738;7.998;2023-12-28T00:05:29;4.90;81.50
1453;DHT22;720;47.738;7.998;2023-12-28T00:07:55;5.00;80.50
1453;DHT22;720;47.738;7.998;2023-12-28T00:10:27;5.00;80.40
1453;DHT22;720;47.738;7.998;2023-12-28T00:12:55;5.10;80.70
1453;DHT22;720;47.738;7.998;2023-12-28T00:15:22;5.00;81.90
1453;DHT22;720;47.738;7.998;2023-12-28T00:17:47;4.90;83.30
1453;DHT22;720;47.738;7.998;2023-12-28T00:20:13;5.00;80.80
1453;DHT22;720;47.738;7.998;2023-12-28T00:22:39;5.10;80.30
1453;DHT22;720;47.738;7.998;2023-12-28T00:25:05;5.10;79.70
1453;DHT22;720;47.738;7.998;2023-12-28T00:27:31;5.20;76.60
1453;DHT22;720;47.738;7.998;2023-12-28T00:29:59;5.20;77.50
1453;DHT22;720;47.738;7.998;2023-12-28T00:32:25;5.20;79.90
1453;DHT22;720;47.738;7.998;2023-12-28T00:34:51;5.20;79.00
1453;DHT22;720;47.738;7.998;2023-12-28T00:37:16;5.20;77.20
1453;DHT22;720;47.738;7.998;2023-12-28T00:39:42;5.20;80.00
1453;DHT22;720;47.738;7.998;2023-12-28T00:42:07;5.30;79.50
1453;DHT22;720;47.738;7.998;2023-12-28T00:44:33;5.30;77.60
1453;DHT22;720;47.738;7.998;2023-12-28T00:46:59;5.50;73.80
1453;DHT22;720;47.738;7.998;2023-12-28T00:49:24;5.60;73.90
1453;DHT22;720;47.738;7.998;2023-12-28T00:51:50;5.60;74.20
1453;DHT22;720;47.738;7.998;2023-12-28T00:54:15;5.60;71.80
1453;DHT22;720;47.738;7.998;2023-12-28T00:56:41;5.70;69.70
1453;DHT22;720;47.738;7.998;2023-12-28T00:59:06;5.80;69.20
1453;DHT22;720;47.738;7.998;2023-12-28T01:01:32;6.00;70.30
1453;DHT22;720;47.738;7.998;2023-12-28T01:03:58;6.10;69.30
1453;DHT22;720;47.738;7.998;2023-12-28T01:06:24;6.10;69.10
1453;DHT22;720;47.738;7.998;2023-12-28T01:08:54;6.10;68.50
1453;DHT22;720;47.738;7.998;2023-12-28T01:11:21;6.20;67.30
1453;DHT22;720;47.738;7.998;2023-12-28T01:13:47;6.30;67.10
1453;DHT22;720;47.738;7.998;2023-12-28T01:16:13;6.30;66.50
1453;DHT22;720;47.738;7.998;2023-12-28T01:18:39;6.30;66.60
1453;DHT22;720;47.738;7.998;2023-12-28T01:21:05;6.30;66.30
1453;DHT22;720;47.738;7.998;2023-12-28T01:23:31;6.40;66.40
1453;DHT22;720;47.738;7.998;2023-12-28T01:25:57;6.40;65.80
1453;DHT22;720;47.738;7.998;2023-12-28T01:28:22;6.40;66.70
1453;DHT22;720;47.738;7.998;2023-12-28T01:30:48;6.40;67.70
1453;DHT22;720;47.738;7.998;2023-12-28T01:33:14;6.40;67.60
1453;DHT22;720;47.738;7.998;2023-12-28T01:35:40;6.40;68.70
1453;DHT22;720;47.738;7.998;2023-12-28T01:38:06;6.40;68.00
1453;DHT22;720;47.738;7.998;2023-12-28T01:40:31;6.40;66.30
1453;DHT22;720;47.738;7.998;2023-12-28T01:42:57;6.40;65.10
1453;DHT22;720;47.738;7.998;2023-12-28T01:45:23;6.40;66.60
1453;DHT22;720;47.738;7.998;2023-12-28T01:47:49;6.30;66.80
1453;DHT22;720;47.738;7.998;2023-12-28T01:50:16;6.30;65.00
1453;DHT22;720;47.738;7.998;2023-12-28T01:52:42;6.30;64.50
1453;DHT22;720;47.738;7.998;2023-12-28T01:55:08;6.40;65.80
1453;DHT22;720;47.738;7.998;2023-12-28T01:57:34;6.40;66.60
1453;DHT22;720;47.738;7.998;2023-12-28T02:00:00;6.30;65.70
1453;DHT22;720;47.738;7.998;2023-12-28T02:02:26;6.30;63.20
1453;DHT22;720;47.738;7.998;2023-12-28T02:04:53;6.40;67.00
1453;DHT22;720;47.738;7.998;2023-12-28T02:07:20;6.40;65.60
1453;DHT22;720;47.738;7.998;2023-12-28T02:09:46;6.40;65.00
1453;DHT22;720;47.738;7.998;2023-12-28T02:12:12;6.50;64.20
1453;DHT22;720;47.738;7.998;2023-12-28T02:14:38;6.50;65.60
1453;DHT22;720;47.738;7.998;2023-12-28T02:17:09;6.50;64.50
1453;DHT22;720;47.738;7.998;2023-12-28T02:19:55;6.50;65.10
1453;DHT22;720;47.738;7.998;2023-12-28T02:22:25;6.40;66.40
1453;DHT22;720;47.738;7.998;2023-12-28T02:27:26;6.40;66.40
1453;DHT22;720;47.738;7.998;2023-12-28T02:29:52;6.30;67.70
1453;DHT22;720;47.738;7.998;2023-12-28T02:32:24;6.40;64.70
1453;DHT22;720;47.738;7.998;2023-12-28T02:34:52;6.40;64.80
1453;DHT22;720;47.738;7.998;2023-12-28T02:37:20;6.40;66.60
1453;DHT22;720;47.738;7.998;2023-12-28T02:39:49;6.40;65.80
1453;DHT22;720;47.738;7.998;2023-12-28T02:42:16;6.40;65.60
1453;DHT22;720;47.738;7.998;2023-12-28T02:44:42;6.40;67.30
1453;DHT22;720;47.738;7.998;2023-12-28T02:47:08;6.30;67.90
1453;DHT22;720;47.738;7.998;2023-12-28T02:49:33;6.30;64.70
1453;DHT22;720;47.738;7.998;2023-12-28T02:51:59;6.30;63.80
1453;DHT22;720;47.738;7.998;2023-12-28T02:54:25;6.30;65.00
1453;DHT22;720;47.738;7.998;2023-12-28T02:56:50;6.40;63.80
1453;DHT22;720;47.738;7.998;2023-12-28T02:59:16;6.40;64.20
1453;DHT22;720;47.738;7.998;2023-12-28T03:01:41;6.40;63.40
1453;DHT22;720;47.738;7.998;2023-12-28T03:04:07;6.40;66.00
1453;DHT22;720;47.738;7.998;2023-12-28T03:06:34;6.40;64.20
1453;DHT22;720;47.738;7.998;2023-12-28T03:09:00;6.40;64.40
1453;DHT22;720;47.738;7.998;2023-12-28T03:11:26;6.40;63.90
1453;DHT22;720;47.738;7.998;2023-12-28T03:13:52;6.40;64.70
1453;DHT22;720;47.738;7.998;2023-12-28T03:16:17;6.40;64.50
1453;DHT22;720;47.738;7.998;2023-12-28T03:18:43;6.30;65.90
1453;DHT22;720;47.738;7.998;2023-12-28T03:21:08;6.30;65.60
1453;DHT22;720;47.738;7.998;2023-12-28T03:23:34;6.30;66.20
1453;DHT22;720;47.738;7.998;2023-12-28T03:26:00;6.30;64.50
1453;DHT22;720;47.738;7.998;2023-12-28T03:28:26;6.40;64.20
1453;DHT22;720;47.738;7.998;2023-12-28T03:30:52;6.40;65.50
1453;DHT22;720;47.738;7.998;2023-12-28T03:33:17;6.40;66.80
1453;DHT22;720;47.738;7.998;2023-12-28T03:35:43;6.40;66.00
1453;DHT22;720;47.738;7.998;2023-12-28T03:38:09;6.40;67.20
1453;DHT22;720;47.738;7.998;2023-12-28T03:40:34;6.40;66.80
1453;DHT22;720;47.738;7.998;2023-12-28T03:43:00;6.40;65.00
1453;DHT22;720;47.738;7.998;2023-12-28T03:45:25;6.40;66.10
1453;DHT22;720;47.738;7.998;2023-12-28T03:47:51;6.40;66.70
1453;DHT22;720;47.738;7.998;2023-12-28T03:50:17;6.40;67.60
1453;DHT22;720;47.738;7.998;2023-12-28T03:52:42;6.40;66.90
1453;DHT22;720;47.738;7.998;2023-12-28T03:55:08;6.40;66.40
1453;DHT22;720;47.738;7.998;2023-12-28T03:57:34;6.40;66.10
1453;DHT22;720;47.738;7.998;2023-12-28T03:59:59;6.50;65.10
1453;DHT22;720;47.738;7.998;2023-12-28T04:02:25;6.50;66.50
1453;DHT22;720;47.738;7.998;2023-12-28T04:04:53;6.50;66.90
1453;DHT22;720;47.738;7.998;2023-12-28T04:07:18;6.50;66.50
1453;DHT22;720;47.738;7.998;2023-12-28T04:09:44;6.50;67.10
1453;DHT22;720;47.738;7.998;2023-12-28T04:12:09;6.40;68.60
1453;DHT22;720;47.738;7.998;2023-12-28T04:14:35;6.40;69.20
1453;DHT22;720;47.738;7.998;2023-12-28T04:17:01;6.40;68.50
1453;DHT22;720;47.738;7.998;2023-12-28T04:19:26;6.30;68.30
1453;DHT22;720;47.738;7.998;2023-12-28T04:21:52;6.40;68.70
1453;DHT22;720;47.738;7.998;2023-12-28T04:24:18;6.30;67.00
1453;DHT22;720;47.738;7.998;2023-12-28T04:26:43;6.40;67.30
1453;DHT22;720;47.738;7.998;2023-12-28T04:29:09;6.40;67.00
1453;DHT22;720;47.738;7.998;2023-12-28T04:31:40;6.40;69.30
1453;DHT22;720;47.738;7.998;2023-12-28T04:34:06;6.40;67.80
1453;DHT22;720;47.738;7.998;2023-12-28T04:36:32;6.40;68.50
1453;DHT22;720;47.738;7.998;2023-12-28T04:38:57;6.40;67.20
1453;DHT22;720;47.738;7.998;2023-12-28T04:41:23;6.40;68.70
1453;DHT22;720;47.738;7.998;2023-12-28T04:43:48;6.30;68.90
1453;DHT22;720;47.738;7.998;2023-12-28T04:46:17;6.40;67.90
1453;DHT22;720;47.738;7.998;2023-12-28T04:48:42;6.40;68.70
1453;DHT22;720;47.738;7.998;2023-12-28T04:51:08;6.30;70.00
1453;DHT22;720;47.738;7.998;2023-12-28T04:53:33;6.20;69.60
1453;DHT22;720;47.738;7.998;2023-12-28T04:56:00;6.10;70.20
1453;DHT22;720;47.738;7.998;2023-12-28T04:58:25;6.20;70.10
1453;DHT22;720;47.738;7.998;2023-12-28T05:00:51;6.20;70.40
1453;DHT22;720;47.738;7.998;2023-12-28T05:03:17;6.20;69.90
1453;DHT22;720;47.738;7.998;2023-12-28T05:05:42;6.20;72.10
1453;DHT22;720;47.738;7.998;2023-12-28T05:08:08;6.10;71.70
1453;DHT22;720;47.738;7.998;2023-12-28T05:10:33;6.00;72.20
1453;DHT22;720;47.738;7.998;2023-12-28T05:12:59;5.90;72.80
1453;DHT22;720;47.738;7.998;2023-12-28T05:15:25;5.90;72.80
1453;DHT22;720;47.738;7.998;2023-12-28T05:17:50;6.00;73.80
1453;DHT22;720;47.738;7.998;2023-12-28T05:20:16;5.90;73.40
1453;DHT22;720;47.738;7.998;2023-12-28T05:22:44;5.80;74.10
1453;DHT22;720;47.738;7.998;2023-12-28T05:25:10;5.80;75.00
1453;DHT22;720;47.738;7.998;2023-12-28T05:27:35;5.70;76.60
1453;DHT22;720;47.738;7.998;2023-12-28T05:30:01;5.70;76.30
1453;DHT22;720;47.738;7.998;2023-12-28T05:32:27;5.60;76.70
1453;DHT22;720;47.738;7.998;2023-12-28T05:34:52;5.60;77.60
1453;DHT22;720;47.738;7.998;2023-12-28T05:37:18;5.70;77.70
1453;DHT22;720;47.738;7.998;2023-12-28T05:39:43;5.70;78.00
1453;DHT22;720;47.738;7.998;2023-12-28T05:42:09;5.80;76.40
1453;DHT22;720;47.738;7.998;2023-12-28T05:44:34;5.80;76.00
1453;DHT22;720;47.738;7.998;2023-12-28T05:47:00;5.80;75.90
1453;DHT22;720;47.738;7.998;2023-12-28T05:49:26;5.80;76.50
1453;DHT22;720;47.738;7.998;2023-12-28T05:51:53;5.70;76.40
1453;DHT22;720;47.738;7.998;2023-12-28T05:54:19;5.70;78.40
1453;DHT22;720;47.738;7.998;2023-12-28T05:56:45;5.70;79.00
1453;DHT22;720;47.738;7.998;2023-12-28T05:59:10;5.60;79.30
1453;DHT22;720;47.738;7.998;2023-12-28T06:01:43;5.50;79.80
1453;DHT22;720;47.738;7.998;2023-12-28T06:04:08;5.60;80.80
1453;DHT22;720;47.738;7.998;2023-12-28T06:06:34;5.70;80.40
1453;DHT22;720;47.738;7.998;2023-12-28T06:09:01;5.70;79.70
1453;DHT22;720;47.738;7.998;2023-12-28T06:11:28;5.80;80.00
1453;DHT22;720;47.738;7.998;2023-12-28T06:13:54;5.90;80.20
1453;DHT22;720;47.738;7.998;2023-12-28T06:16:20;6.00;80.90
1453;DHT22;720;47.738;7.998;2023-12-28T06:18:45;6.10;78.90
1453;DHT22;720;47.738;7.998;2023-12-28T06:21:11;6.20;80.10
1453;DHT22;720;47.738;7.998;2023-12-28T06:23:36;6.10;81.50
1453;DHT22;720;47.738;7.998;2023-12-28T06:26:06;6.20;80.80
1453;DHT22;720;47.738;7.998;2023-12-28T06:28:34;6.20;80.90
1453;DHT22;720;47.738;7.998;2023-12-28T06:31:00;6.30;80.60
1453;DHT22;720;47.738;7.998;2023-12-28T06:33:27;6.30;81.20
1453;DHT22;720;47.738;7.998;2023-12-28T06:35:54;6.40;81.50
1453;DHT22;720;47.738;7.998;2023-12-28T06:38:20;6.30;80.70
1453;DHT22;720;47.738;7.998;2023-12-28T06:40:45;6.40;80.50
1453;DHT22;720;47.738;7.998;2023-12-28T06:43:11;6.40;80.50
1453;DHT22;720;47.738;7.998;2023-12-28T06:45:37;6.50;79.90
1453;DHT22;720;47.738;7.998;2023-12-28T06:48:03;6.50;80.80
1453;DHT22;720;47.738;7.998;2023-12-28T06:50:28;6.40;80.10
1453;DHT22;720;47.738;7.998;2023-12-28T06:52:54;6.40;79.90
1453;DHT22;720;47.738;7.998;2023-12-28T06:55:19;6.40;79.60
1453;DHT22;720;47.738;7.998;2023-12-28T06:57:45;6.40;79.70
1453;DHT22;720;47.738;7.998;2023-12-28T07:00:11;6.40;80.20
1453;DHT22;720;47.738;7.998;2023-12-28T07:02:37;6.50;80.80
1453;DHT22;720;47.738;7.998;2023-12-28T07:05:04;6.50;81.20
1453;DHT22;720;47.738;7.998;2023-12-28T07:07:29;6.50;81.10
1453;DHT22;720;47.738;7.998;2023-12-28T07:09:55;6.60;80.90
1453;DHT22;720;47.738;7.998;2023-12-28T07:12:21;6.70;81.00
1453;DHT22;720;47.738;7.998;2023-12-28T07:14:47;6.80;80.80
1453;DHT22;720;47.738;7.998;2023-12-28T07:17:12;6.90;81.20
1453;DHT22;720;47.738;7.998;2023-12-28T07:19:45;6.90;80.90
1453;DHT22;720;47.738;7.998;2023-12-28T07:22:10;7.00;81.20
1453;DHT22;720;47.738;7.998;2023-12-28T07:24:36;7.10;80.60
1453;DHT22;720;47.738;7.998;2023-12-28T07:27:02;7.20;82.00
1453;DHT22;720;47.738;7.998;2023-12-28T07:29:27;7.30;82.60
1453;DHT22;720;47.738;7.998;2023-12-28T07:31:54;7.50;81.30
1453;DHT22;720;47.738;7.998;2023-12-28T07:34:19;7.50;81.00
1453;DHT22;720;47.738;7.998;2023-12-28T07:36:45;7.60;79.00
1453;DHT22;720;47.738;7.998;2023-12-28T07:39:11;7.70;79.80
1453;DHT22;720;47.738;7.998;2023-12-28T07:41:37;7.70;79.00
1453;DHT22;720;47.738;7.998;2023-12-28T07:44:02;7.80;77.10
1453;DHT22;720;47.738;7.998;2023-12-28T07:46:28;7.70;76.10
1453;DHT22;720;47.738;7.998;2023-12-28T07:48:54;7.80;76.80
1453;DHT22;720;47.738;7.998;2023-12-28T07:51:19;7.80;76.10
1453;DHT22;720;47.738;7.998;2023-12-28T07:53:45;7.80;75.20
1453;DHT22;720;47.738;7.998;2023-12-28T07:56:11;7.80;74.70
1453;DHT22;720;47.738;7.998;2023-12-28T07:58:37;7.90;74.20
1453;DHT22;720;47.738;7.998;2023-12-28T08:01:09;7.90;72.20
1453;DHT22;720;47.738;7.998;2023-12-28T08:03:35;8.00;73.40
1453;DHT22;720;47.738;7.998;2023-12-28T08:06:01;8.00;72.60
1453;DHT22;720;47.738;7.998;2023-12-28T08:08:26;8.10;73.60
1453;DHT22;720;47.738;7.998;2023-12-28T08:10:52;8.10;73.20
1453;DHT22;720;47.738;7.998;2023-12-28T08:13:17;8.20;72.40
1453;DHT22;720;47.738;7.998;2023-12-28T08:15:43;8.30;71.30
1453;DHT22;720;47.738;7.998;2023-12-28T08:18:10;8.40;71.00
1453;DHT22;720;47.738;7.998;2023-12-28T08:20:36;8.40;73.00
1453;DHT22;720;47.738;7.998;2023-12-28T08:23:01;8.40;74.40
1453;DHT22;720;47.738;7.998;2023-12-28T08:25:27;8.40;71.20
1453;DHT22;720;47.738;7.998;2023-12-28T08:27:52;8.50;70.20
1453;DHT22;720;47.738;7.998;2023-12-28T08:30:18;8.50;68.20
1453;DHT22;720;47.738;7.998;2023-12-28T08:32:44;8.50;70.00
1453;DHT22;720;47.738;7.998;2023-12-28T08:35:09;8.60;70.50
1453;DHT22;720;47.738;7.998;2023-12-28T08:37:35;8.60;70.40
1453;DHT22;720;47.738;7.998;2023-12-28T08:40:00;8.60;73.70
1453;DHT22;720;47.738;7.998;2023-12-28T08:42:26;8.60;72.00
1453;DHT22;720;47.738;7.998;2023-12-28T08:44:52;8.60;72.70
1453;DHT22;720;47.738;7.998;2023-12-28T08:47:17;8.70;73.10
1453;DHT22;720;47.738;7.998;2023-12-28T08:49:43;8.70;74.10
1453;DHT22;720;47.738;7.998;2023-12-28T08:52:09;8.70;73.40
1453;DHT22;720;47.738;7.998;2023-12-28T08:54:35;8.70;72.30
1453;DHT22;720;47.738;7.998;2023-12-28T08:57:01;8.70;73.90
1453;DHT22;720;47.738;7.998;2023-12-28T08:59:26;8.70;75.30
1453;DHT22;720;47.738;7.998;2023-12-28T09:01:55;8.70;73.80
1453;DHT22;720;47.738;7.998;2023-12-28T09:04:20;8.80;73.20
1453;DHT22;720;47.738;7.998;2023-12-28T09:06:46;8.80;72.50
1453;DHT22;720;47.738;7.998;2023-12-28T09:09:12;8.90;72.60
1453;DHT22;720;47.738;7.998;2023-12-28T09:11:37;9.00;72.50
1453;DHT22;720;47.738;7.998;2023-12-28T09:14:03;9.00;72.40
1453;DHT22;720;47.738;7.998;2023-12-28T09:16:28;8.90;73.70
1453;DHT22;720;47.738;7.998;2023-12-28T09:18:54;8.90;73.70
1453;DHT22;720;47.738;7.998;2023-12-28T09:21:20;8.90;74.10
1453;DHT22;720;47.738;7.998;2023-12-28T09:23:46;9.00;74.80
1453;DHT22;720;47.738;7.998;2023-12-28T09:26:12;9.00;73.80
1453;DHT22;720;47.738;7.998;2023-12-28T09:28:37;9.10;71.70
1453;DHT22;720;47.738;7.998;2023-12-28T09:31:06;9.20;71.80
1453;DHT22;720;47.738;7.998;2023-12-28T09:33:32;9.30;72.50
1453;DHT22;720;47.738;7.998;2023-12-28T09:35:58;9.30;72.80
1453;DHT22;720;47.738;7.998;2023-12-28T09:38:23;9.30;70.10
1453;DHT22;720;47.738;7.998;2023-12-28T09:40:53;9.30;71.10
1453;DHT22;720;47.738;7.998;2023-12-28T09:44:07;9.50;73.10
1453;DHT22;720;47.738;7.998;2023-12-28T09:46:12;9.60;72.30
1453;DHT22;720;47.738;7.998;2023-12-28T09:48:39;9.70;72.40
1453;DHT22;720;47.738;7.998;2023-12-28T09:51:05;9.80;72.10
1453;DHT22;720;47.738;7.998;2023-12-28T09:53:31;9.90;71.80
1453;DHT22;720;47.738;7.998;2023-12-28T09:55:57;10.00;71.90
1453;DHT22;720;47.738;7.998;2023-12-28T09:58:24;9.90;70.90
1453;DHT22;720;47.738;7.998;2023-12-28T10:00:51;9.90;74.20
1453;DHT22;720;47.738;7.998;2023-12-28T10:03:17;9.90;72.80
1453;DHT22;720;47.738;7.998;2023-12-28T10:05:46;10.10;72.60
1453;DHT22;720;47.738;7.998;2023-12-28T10:08:13;10.10;71.80
1453;DHT22;720;47.738;7.998;2023-12-28T10:10:39;10.10;70.40
1453;DHT22;720;47.738;7.998;2023-12-28T10:13:10;10.20;69.60
1453;DHT22;720;47.738;7.998;2023-12-28T10:15:36;10.20;68.60
1453;DHT22;720;47.738;7.998;2023-12-28T10:18:03;10.30;69.90
1453;DHT22;720;47.738;7.998;2023-12-28T10:20:30;10.30;70.30
1453;DHT22;720;47.738;7.998;2023-12-28T10:22:56;10.30;71.90
1453;DHT22;720;47.738;7.998;2023-12-28T10:25:22;10.30;71.40
1453;DHT22;720;47.738;7.998;2023-12-28T10:27:53;10.40;69.30
1453;DHT22;720;47.738;7.998;2023-12-28T10:30:20;10.40;69.30
1453;DHT22;720;47.738;7.998;2023-12-28T10:32:47;10.40;67.30
1453;DHT22;720;47.738;7.998;2023-12-28T10:35:13;10.40;66.20
1453;DHT22;720;47.738;7.998;2023-12-28T10:37:42;10.50;64.60
1453;DHT22;720;47.738;7.998;2023-12-28T10:40:12;10.50;64.80
1453;DHT22;720;47.738;7.998;2023-12-28T10:42:52;10.50;67.30
1453;DHT22;720;47.738;7.998;2023-12-28T10:45:19;10.50;65.40
1453;DHT22;720;47.738;7.998;2023-12-28T10:48:05;10.60;66.80
1453;DHT22;720;47.738;7.998;2023-12-28T10:50:46;10.70;67.60
1453;DHT22;720;47.738;7.998;2023-12-28T10:53:16;10.90;65.00
1453;DHT22;720;47.738;7.998;2023-12-28T10:58:39;10.90;62.80
1453;DHT22;720;47.738;7.998;2023-12-28T11:01:09;10.80;62.60
1453;DHT22;720;47.738;7.998;2023-12-28T11:03:37;11.00;64.30
1453;DHT22;720;47.738;7.998;2023-12-28T11:06:05;11.10;64.10
1453;DHT22;720;47.738;7.998;2023-12-28T11:08:32;11.20;63.70
1453;DHT22;720;47.738;7.998;2023-12-28T11:10:59;11.00;63.70
1453;DHT22;720;47.738;7.998;2023-12-28T11:13:29;10.90;64.20
1453;DHT22;720;47.738;7.998;2023-12-28T11:15:56;11.00;64.30
1453;DHT22;720;47.738;7.998;2023-12-28T11:18:23;11.20;64.10
1453;DHT22;720;47.738;7.998;2023-12-28T11:20:49;11.30;63.00
1453;DHT22;720;47.738;7.998;2023-12-28T11:23:16;11.40;63.00
1453;DHT22;720;47.738;7.998;2023-12-28T11:25:42;11.50;63.40
1453;DHT22;720;47.738;7.998;2023-12-28T11:28:11;11.30;63.60
1453;DHT22;720;47.738;7.998;2023-12-28T11:30:41;11.20;64.80
1453;DHT22;720;47.738;7.998;2023-12-28T11:33:07;11.20;64.30
1453;DHT22;720;47.738;7.998;2023-12-28T11:35:39;11.30;63.30
1453;DHT22;720;47.738;7.998;2023-12-28T11:38:08;11.20;62.50
1453;DHT22;720;47.738;7.998;2023-12-28T11:40:47;11.00;63.40
1453;DHT22;720;47.738;7.998;2023-12-28T11:43:20;10.90;64.30
1453;DHT22;720;47.738;7.998;2023-12-28T11:45:48;11.00;64.80
1453;DHT22;720;47.738;7.998;2023-12-28T11:48:23;10.90;64.10
1453;DHT22;720;47.738;7.998;2023-12-28T11:50:49;10.90;64.90
1453;DHT22;720;47.738;7.998;2023-12-28T11:53:15;10.80;65.50
1453;DHT22;720;47.738;7.998;2023-12-28T11:55:42;10.80;67.10
1453;DHT22;720;47.738;7.998;2023-12-28T11:58:07;10.90;67.00
1453;DHT22;720;47.738;7.998;2023-12-28T12:00:33;11.00;68.30
1453;DHT22;720;47.738;7.998;2023-12-28T12:02:58;11.10;68.60
1453;DHT22;720;47.738;7.998;2023-12-28T12:05:24;11.10;68.70
1453;DHT22;720;47.738;7.998;2023-12-28T12:07:50;11.10;66.60
1453;DHT22;720;47.738;7.998;2023-12-28T12:10:15;11.20;66.60
1453;DHT22;720;47.738;7.998;2023-12-28T12:12:41;11.30;66.70
1453;DHT22;720;47.738;7.998;2023-12-28T12:15:08;11.20;68.90
1453;DHT22;720;47.738;7.998;2023-12-28T12:17:34;11.10;69.60
1453;DHT22;720;47.738;7.998;2023-12-28T12:20:00;11.00;68.70
1453;DHT22;720;47.738;7.998;2023-12-28T12:22:27;10.90;68.30
1453;DHT22;720;47.738;7.998;2023-12-28T12:24:53;10.20;69.10
1453;DHT22;720;47.738;7.998;2023-12-28T12:27:21;10.10;70.90
1453;DHT22;720;47.738;7.998;2023-12-28T12:29:47;10.20;71.80
1453;DHT22;720;47.738;7.998;2023-12-28T12:32:13;10.10;72.60
1453;DHT22;720;47.738;7.998;2023-12-28T12:34:39;10.30;72.80
1453;DHT22;720;47.738;7.998;2023-12-28T12:37:05;10.40;73.40
1453;DHT22;720;47.738;7.998;2023-12-28T12:39:31;10.50;73.40
1453;DHT22;720;47.738;7.998;2023-12-28T12:41:57;10.50;73.80
1453;DHT22;720;47.738;7.998;2023-12-28T12:44:23;10.40;75.10
1453;DHT22;720;47.738;7.998;2023-12-28T12:46:56;10.30;75.30
1453;DHT22;720;47.738;7.998;2023-12-28T12:49:23;10.20;76.50
1453;DHT22;720;47.738;7.998;2023-12-28T12:51:48;10.20;77.70
1453;DHT22;720;47.738;7.998;2023-12-28T12:54:17;10.30;77.30
1453;DHT22;720;47.738;7.998;2023-12-28T12:56:46;10.30;77.60
1453;DHT22;720;47.738;7.998;2023-12-28T12:59:12;10.30;78.40
1453;DHT22;720;47.738;7.998;2023-12-28T13:01:45;10.40;78.30
1453;DHT22;720;47.738;7.998;2023-12-28T13:04:14;10.40;77.60
1453;DHT22;720;47.738;7.998;2023-12-28T13:06:41;10.40;77.20
1453;DHT22;720;47.738;7.998;2023-12-28T13:09:07;10.40;77.20
1453;DHT22;720;47.738;7.998;2023-12-28T13:11:36;10.50;76.60
1453;DHT22;720;47.738;7.998;2023-12-28T13:14:01;10.60;76.30
1453;DHT22;720;47.738;7.998;2023-12-28T13:16:27;10.60;76.60
1453;DHT22;720;47.738;7.998;2023-12-28T13:18:53;10.50;77.90
1453;DHT22;720;47.738;7.998;2023-12-28T13:21:18;10.40;78.90
1453;DHT22;720;47.738;7.998;2023-12-28T13:23:44;10.30;80.50
1453;DHT22;720;47.738;7.998;2023-12-28T13:26:10;10.10;83.20
1453;DHT22;720;47.738;7.998;2023-12-28T13:28:35;10.00;83.50
1453;DHT22;720;47.738;7.998;2023-12-28T13:31:01;9.90;90.00
1453;DHT22;720;47.738;7.998;2023-12-28T13:33:26;9.80;91.90
1453;DHT22;720;47.738;7.998;2023-12-28T13:35:52;9.70;92.80
1453;DHT22;720;47.738;7.998;2023-12-28T13:38:18;9.50;93.60
1453;DHT22;720;47.738;7.998;2023-12-28T13:40:43;9.40;94.40
1453;DHT22;720;47.738;7.998;2023-12-28T13:43:09;9.30;94.70
1453;DHT22;720;47.738;7.998;2023-12-28T13:45:35;9.20;95.20
1453;DHT22;720;47.738;7.998;2023-12-28T13:48:01;9.20;95.60
1453;DHT22;720;47.738;7.998;2023-12-28T13:50:27;9.10;94.90
1453;DHT22;720;47.738;7.998;2023-12-28T13:52:53;9.10;95.30
1453;DHT22;720;47.738;7.998;2023-12-28T13:55:19;9.20;96.60
1453;DHT22;720;47.738;7.998;2023-12-28T13:57:45;9.20;96.40
1453;DHT22;720;47.738;7.998;2023-12-28T14:00:11;9.20;96.50
1453;DHT22;720;47.738;7.998;2023-12-28T14:02:37;9.20;96.60
1453;DHT22;720;47.738;7.998;2023-12-28T14:05:02;9.20;97.10
1453;DHT22;720;47.738;7.998;2023-12-28T14:07:28;9.30;97.20
1453;DHT22;720;47.738;7.998;2023-12-28T14:09:54;9.10;97.50
1453;DHT22;720;47.738;7.998;2023-12-28T14:12:19;9.00;97.90
1453;DHT22;720;47.738;7.998;2023-12-28T14:14:45;9.00;98.10
1453;DHT22;720;47.738;7.998;2023-12-28T14:17:11;9.00;98.00
1453;DHT22;720;47.738;7.998;2023-12-28T14:19:36;9.00;97.40
1453;DHT22;720;47.738;7.998;2023-12-28T14:22:02;9.10;97.10
1453;DHT22;720;47.738;7.998;2023-12-28T14:24:28;9.00;97.50
1453;DHT22;720;47.738;7.998;2023-12-28T14:26:55;8.90;98.00
1453;DHT22;720;47.738;7.998;2023-12-28T14:29:21;8.90;98.20
1453;DHT22;720;47.738;7.998;2023-12-28T14:31:48;8.80;98.40
1453;DHT22;720;47.738;7.998;2023-12-28T14:34:14;8.80;98.60
1453;DHT22;720;47.738;7.998;2023-12-28T14:36:40;8.80;98.80
1453;DHT22;720;47.738;7.998;2023-12-28T14:39:07;8.80;99.00
1453;DHT22;720;47.738;7.998;2023-12-28T14:41:34;8.80;98.80
1453;DHT22;720;47.738;7.998;2023-12-28T14:44:00;8.80;99.20
1453;DHT22;720;47.738;7.998;2023-12-28T14:46:26;8.80;99.10
1453;DHT22;720;47.738;7.998;2023-12-28T14:48:52;8.70;99.20
1453;DHT22;720;47.738;7.998;2023-12-28T14:51:18;8.60;99.40
1453;DHT22;720;47.738;7.998;2023-12-28T14:53:44;8.60;99.60
1453;DHT22;720;47.738;7.998;2023-12-28T14:56:10;8.50;99.90
1453;DHT22;720;47.738;7.998;2023-12-28T14:58:37;8.50;99.90
1453;DHT22;720;47.738;7.998;2023-12-28T15:01:03;8.40;99.90
1453;DHT22;720;47.738;7.998;2023-12-28T15:03:29;8.40;99.90
1453;DHT22;720;47.738;7.998;2023-12-28T15:05:57;8.40;99.90
1453;DHT22;720;47.738;7.998;2023-12-28T15:08:25;8.50;99.90
1453;DHT22;720;47.738;7.998;2023-12-28T15:10:51;8.40;99.90
1453;DHT22;720;47.738;7.998;2023-12-28T15:13:17;8.30;99.90
1453;DHT22;720;47.738;7.998;2023-12-28T15:15:44;8.30;99.90
1453;DHT22;720;47.738;7.998;2023-12-28T15:18:10;8.40;99.90
1453;DHT22;720;47.738;7.998;2023-12-28T15:20:36;8.40;99.90
1453;DHT22;720;47.738;7.998;2023-12-28T15:23:02;8.40;99.90
1453;DHT22;720;47.738;7.998;2023-12-28T15:25:28;8.40;99.90
1453;DHT22;720;47.738;7.998;2023-12-28T15:27:54;8.40;99.90
1453;DHT22;720;47.738;7.998;2023-12-28T15:30:20;8.40;99.90
1453;DHT22;720;47.738;7.998;2023-12-28T15:32:46;8.40;99.90
1453;DHT22;720;47.738;7.998;2023-12-28T15:35:12;8.40;99.90
1453;DHT22;720;47.738;7.998;2023-12-28T15:37:39;8.40;99.90
1453;DHT22;720;47.738;7.998;2023-12-28T15:40:05;8.30;99.90
1453;DHT22;720;47.738;7.998;2023-12-28T15:42:30;8.30;99.90
1453;DHT22;720;47.738;7.998;2023-12-28T15:44:56;8.20;99.90
1453;DHT22;720;47.738;7.998;2023-12-28T15:47:23;8.20;99.90
1453;DHT22;720;47.738;7.998;2023-12-28T15:49:48;8.20;99.90
1453;DHT22;720;47.738;7.998;2023-12-28T15:52:14;8.20;99.90
1453;DHT22;720;47.738;7.998;2023-12-28T15:54:40;8.20;99.90
1453;DHT22;720;47.738;7.998;2023-12-28T15:57:05;8.30;99.90
1453;DHT22;720;47.738;7.998;2023-12-28T15:59:31;8.30;99.90
1453;DHT22;720;47.738;7.998;2023-12-28T16:01:57;8.30;99.90
1453;DHT22;720;47.738;7.998;2023-12-28T16:04:22;8.30;99.90
1453;DHT22;720;47.738;7.998;2023-12-28T16:06:49;8.40;99.90
1453;DHT22;720;47.738;7.998;2023-12-28T16:09:14;8.40;99.90
1453;DHT22;720;47.738;7.998;2023-12-28T16:11:40;8.40;99.90
1453;DHT22;720;47.738;7.998;2023-12-28T16:14:06;8.40;99.90
1453;DHT22;720;47.738;7.998;2023-12-28T16:16:32;8.40;99.90
1453;DHT22;720;47.738;7.998;2023-12-28T16:18:58;8.40;99.90
1453;DHT22;720;47.738;7.998;2023-12-28T16:21:24;8.40;99.90
1453;DHT22;720;47.738;7.998;2023-12-28T16:23:50;8.30;99.90
1453;DHT22;720;47.738;7.998;2023-12-28T16:26:16;8.40;99.90
1453;DHT22;720;47.738;7.998;2023-12-28T16:28:44;8.40;99.90
1453;DHT22;720;47.738;7.998;2023-12-28T16:31:09;8.40;99.90